Time;durP1;ratioP1;P1;durP2;ratioP2;P2;SDS_P1;SDS_P2;PMS_P1;PMS_P2;Temp;Humidity;BMP_temperature;BMP_pressure;BME280_temperature;BME280_humidity;BME280_pressure;Samples;Min_cycle;Max_cycle;Signal;HPM_P1;HPM_P2
2022/10/06 00:02:15;;;;;;;;;;;10.70;99.90;;;;;;5073801;28;19916;-76
2022/10/06 00:04:40;;;;;;;;;;;10.70;99.90;;;;;;5092822;28;19923;-76
2022/10/06 00:07:06;;;;;;;;;;;10.70;99.90;;;;;;5079468;28;19928;-76
2022/10/06 00:09:31;;;;;;;;;;;10.70;99.90;;;;;;5068163;28;19908;-76
2022/10/06 00:11:57;;;;;;;;;;;10.70;99.90;;;;;;5078164;28;19980;-76
2022/10/06 00:14:23;;;;;;;;;;;10.70;99.90;;;;;;5071778;28;19916;-76
2022/10/06 00:16:49;;;;;;;;;;;10.70;99.90;;;;;;5064344;28;20072;-76
2022/10/06 00:19:14;;;;;;;;;;;10.60;99.90;;;;;;5068744;28;20019;-76
2022/10/06 00:21:40;;;;;;;;;;;10.60;99.90;;;;;;5081984;28;19966;-75
2022/10/06 00:24:05;;;;;;;;;;;10.60;99.90;;;;;;5076424;28;20486;-76
2022/10/06 00:26:31;;;;;;;;;;;10.50;99.90;;;;;;5070077;28;19916;-76
2022/10/06 00:28:57;;;;;;;;;;;10.40;99.90;;;;;;5084662;28;19971;-76
2022/10/06 00:31:22;;;;;;;;;;;10.40;99.90;;;;;;5077904;28;19912;-76
2022/10/06 00:33:48;;;;;;;;;;;10.30;99.90;;;;;;5069745;28;20318;-76
2022/10/06 00:36:14;;;;;;;;;;;10.30;99.90;;;;;;5083127;28;19912;-76
2022/10/06 00:38:39;;;;;;;;;;;10.30;99.90;;;;;;5077375;28;19924;-76
2022/10/06 00:41:05;;;;;;;;;;;10.30;99.90;;;;;;5079940;28;19927;-76
2022/10/06 00:43:49;;;;;;;;;;;10.30;99.90;;;;;;5078954;28;19916;-76
2022/10/06 00:46:19;;;;;;;;;;;10.20;99.90;;;;;;5083334;28;19916;-76
2022/10/06 00:48:45;;;;;;;;;;;10.20;99.90;;;;;;5075597;28;19957;-76
2022/10/06 00:51:11;;;;;;;;;;;10.10;99.90;;;;;;5080756;28;20019;-76
2022/10/06 00:53:37;;;;;;;;;;;10.00;99.90;;;;;;5080117;28;19980;-76
2022/10/06 00:56:03;;;;;;;;;;;10.00;99.90;;;;;;5078937;28;20351;-75
2022/10/06 00:58:28;;;;;;;;;;;9.90;99.90;;;;;;5078420;28;19935;-76
2022/10/06 01:00:55;;;;;;;;;;;9.90;99.90;;;;;;5082148;28;19916;-76
2022/10/06 01:03:22;;;;;;;;;;;9.90;99.90;;;;;;5066123;28;19924;-76
2022/10/06 01:05:49;;;;;;;;;;;9.90;99.90;;;;;;5081285;28;20377;-76
2022/10/06 01:08:15;;;;;;;;;;;9.90;99.90;;;;;;5082087;28;20249;-76
2022/10/06 01:10:40;;;;;;;;;;;9.90;99.90;;;;;;5080763;28;19912;-76
2022/10/06 01:13:09;;;;;;;;;;;9.80;99.90;;;;;;5082026;28;20701;-76
2022/10/06 01:15:36;;;;;;;;;;;9.80;99.90;;;;;;5069437;28;20061;-75
2022/10/06 01:18:12;;;;;;;;;;;9.70;99.90;;;;;;5079119;28;19924;-76
2022/10/06 01:20:39;;;;;;;;;;;9.70;99.90;;;;;;5082491;28;19984;-76
2022/10/06 01:23:05;;;;;;;;;;;9.60;99.90;;;;;;5078666;28;20077;-76
2022/10/06 01:25:34;;;;;;;;;;;9.60;99.90;;;;;;5061683;28;19916;-76
2022/10/06 01:28:01;;;;;;;;;;;9.50;99.90;;;;;;5066736;28;20393;-76
2022/10/06 01:30:31;;;;;;;;;;;9.50;99.90;;;;;;5079613;28;21234;-76
2022/10/06 01:32:57;;;;;;;;;;;9.50;99.90;;;;;;5071723;28;19915;-76
2022/10/06 01:35:23;;;;;;;;;;;9.50;99.90;;;;;;5081225;28;19938;-76
2022/10/06 01:37:49;;;;;;;;;;;9.40;99.90;;;;;;5080930;28;19963;-76
2022/10/06 01:40:14;;;;;;;;;;;9.30;99.90;;;;;;5081923;28;19996;-76
2022/10/06 01:42:40;;;;;;;;;;;9.40;99.90;;;;;;5072666;28;20427;-75
2022/10/06 01:45:06;;;;;;;;;;;9.30;99.90;;;;;;5082860;28;19923;-76
2022/10/06 01:47:32;;;;;;;;;;;9.20;99.90;;;;;;5063394;28;20325;-76
2022/10/06 01:49:58;;;;;;;;;;;9.10;99.90;;;;;;5062941;28;20006;-75
2022/10/06 01:52:25;;;;;;;;;;;9.10;99.90;;;;;;5080976;28;19920;-76
2022/10/06 01:54:51;;;;;;;;;;;9.00;99.90;;;;;;5083570;28;20030;-76
2022/10/06 01:57:16;;;;;;;;;;;9.00;99.90;;;;;;5080795;28;20018;-76
2022/10/06 01:59:42;;;;;;;;;;;9.00;99.90;;;;;;5073493;28;19916;-76
2022/10/06 02:02:07;;;;;;;;;;;8.90;99.90;;;;;;5082181;28;19916;-76
2022/10/06 02:04:33;;;;;;;;;;;8.90;99.90;;;;;;5074216;28;19981;-76
2022/10/06 02:06:58;;;;;;;;;;;8.90;99.90;;;;;;5083815;28;19923;-76
2022/10/06 02:09:24;;;;;;;;;;;8.90;99.90;;;;;;5081365;28;19938;-76
2022/10/06 02:11:49;;;;;;;;;;;8.90;99.90;;;;;;5080386;28;19924;-76
2022/10/06 02:14:16;;;;;;;;;;;8.90;99.90;;;;;;5077062;28;19923;-75
2022/10/06 02:16:42;;;;;;;;;;;8.80;99.90;;;;;;5082794;28;20304;-74
2022/10/06 02:19:08;;;;;;;;;;;8.80;99.90;;;;;;5078610;28;20257;-75
2022/10/06 02:21:34;;;;;;;;;;;8.70;99.90;;;;;;5080968;28;19981;-75
2022/10/06 02:24:00;;;;;;;;;;;8.70;99.90;;;;;;5062743;28;19916;-75
2022/10/06 02:26:26;;;;;;;;;;;8.60;99.90;;;;;;5075722;28;20025;-74
2022/10/06 02:28:51;;;;;;;;;;;8.60;99.90;;;;;;5079118;28;20386;-75
2022/10/06 02:31:16;;;;;;;;;;;8.60;99.90;;;;;;5078970;28;19969;-75
2022/10/06 02:33:43;;;;;;;;;;;8.50;99.90;;;;;;5079672;28;20283;-75
2022/10/06 02:36:10;;;;;;;;;;;8.50;99.90;;;;;;5078332;28;19967;-75
2022/10/06 02:38:36;;;;;;;;;;;8.50;99.90;;;;;;5079350;28;19924;-75
2022/10/06 02:41:01;;;;;;;;;;;8.50;99.90;;;;;;5061716;28;20893;-75
2022/10/06 02:43:28;;;;;;;;;;;8.40;99.90;;;;;;5067505;28;19928;-75
2022/10/06 02:45:58;;;;;;;;;;;8.40;99.90;;;;;;5058841;28;19996;-74
2022/10/06 02:48:24;;;;;;;;;;;8.40;99.90;;;;;;5069727;28;20325;-75
2022/10/06 02:51:00;;;;;;;;;;;8.40;99.90;;;;;;5060081;28;19965;-75
2022/10/06 02:53:26;;;;;;;;;;;8.40;99.90;;;;;;5065929;28;20434;-75
2022/10/06 02:55:59;;;;;;;;;;;8.40;99.90;;;;;;5078154;28;20019;-75
2022/10/06 02:58:25;;;;;;;;;;;8.40;99.90;;;;;;5076145;28;20145;-75
2022/10/06 03:00:50;;;;;;;;;;;8.40;99.90;;;;;;5076817;28;20368;-75
2022/10/06 03:03:16;;;;;;;;;;;8.30;99.90;;;;;;5067409;28;20299;-75
2022/10/06 03:05:41;;;;;;;;;;;8.30;99.90;;;;;;5087973;28;19951;-74
2022/10/06 03:08:09;;;;;;;;;;;8.30;99.90;;;;;;5074975;28;20031;-75
2022/10/06 03:10:34;;;;;;;;;;;8.30;99.90;;;;;;5073860;28;19931;-74
2022/10/06 03:13:00;;;;;;;;;;;8.30;99.90;;;;;;5075373;28;19931;-75
2022/10/06 03:15:25;;;;;;;;;;;8.30;99.90;;;;;;5072351;28;20034;-74
2022/10/06 03:17:51;;;;;;;;;;;8.30;99.90;;;;;;5078599;28;20460;-75
2022/10/06 03:20:16;;;;;;;;;;;8.20;99.90;;;;;;5077565;28;21238;-75
2022/10/06 03:22:42;;;;;;;;;;;8.20;99.90;;;;;;5080321;28;19959;-75
2022/10/06 03:25:08;;;;;;;;;;;8.20;99.90;;;;;;5069157;28;19916;-75
2022/10/06 03:27:34;;;;;;;;;;;8.10;99.90;;;;;;5079335;28;20008;-75
2022/10/06 03:29:59;;;;;;;;;;;8.10;99.90;;;;;;5079043;28;20007;-74
2022/10/06 03:32:25;;;;;;;;;;;8.20;99.90;;;;;;5068164;28;19999;-75
2022/10/06 03:34:52;;;;;;;;;;;8.10;99.90;;;;;;5074276;28;19951;-75
2022/10/06 03:37:18;;;;;;;;;;;8.20;99.90;;;;;;5073750;28;19924;-74
2022/10/06 03:39:43;;;;;;;;;;;8.20;99.90;;;;;;5070391;28;20025;-75
2022/10/06 03:42:09;;;;;;;;;;;8.20;99.90;;;;;;5080364;28;19916;-75
2022/10/06 03:44:34;;;;;;;;;;;8.30;99.90;;;;;;5065870;28;19936;-75
2022/10/06 03:47:00;;;;;;;;;;;8.30;99.90;;;;;;5072221;28;19924;-75
2022/10/06 03:49:25;;;;;;;;;;;8.30;99.90;;;;;;5080728;28;20182;-75
2022/10/06 03:51:52;;;;;;;;;;;8.30;99.90;;;;;;5071474;28;19920;-75
2022/10/06 03:54:18;;;;;;;;;;;8.20;99.90;;;;;;5083073;28;19964;-75
2022/10/06 03:56:43;;;;;;;;;;;8.20;99.90;;;;;;5083491;28;19916;-75
2022/10/06 03:59:09;;;;;;;;;;;8.20;99.90;;;;;;5068714;28;19984;-75
2022/10/06 04:01:37;;;;;;;;;;;8.10;99.90;;;;;;5075112;28;20006;-75
2022/10/06 04:04:03;;;;;;;;;;;8.10;99.90;;;;;;5079401;28;19924;-75
2022/10/06 04:06:30;;;;;;;;;;;8.10;99.90;;;;;;5063915;28;20451;-75
2022/10/06 04:08:56;;;;;;;;;;;8.10;99.90;;;;;;5068374;28;19989;-75
2022/10/06 04:11:23;;;;;;;;;;;8.20;99.90;;;;;;5075169;28;19948;-73
2022/10/06 04:13:56;;;;;;;;;;;8.20;99.90;;;;;;5079445;28;20454;-75
2022/10/06 04:16:23;;;;;;;;;;;8.30;99.90;;;;;;5072473;28;19920;-74
2022/10/06 04:18:50;;;;;;;;;;;8.30;99.90;;;;;;5081293;28;19924;-75
2022/10/06 04:21:15;;;;;;;;;;;8.30;99.90;;;;;;5081146;28;19966;-75
2022/10/06 04:23:41;;;;;;;;;;;8.40;99.90;;;;;;5079214;28;20395;-75
2022/10/06 04:26:09;;;;;;;;;;;8.40;99.90;;;;;;5077931;28;19959;-75
2022/10/06 04:28:35;;;;;;;;;;;8.40;99.90;;;;;;5082689;28;19942;-75
2022/10/06 04:31:01;;;;;;;;;;;8.30;99.90;;;;;;5081060;28;19958;-75
2022/10/06 04:33:28;;;;;;;;;;;8.30;99.90;;;;;;5082945;28;19912;-75
2022/10/06 04:36:01;;;;;;;;;;;8.20;99.90;;;;;;5064180;28;19921;-75
2022/10/06 04:38:28;;;;;;;;;;;8.20;99.90;;;;;;5074357;28;21390;-75
2022/10/06 04:40:54;;;;;;;;;;;8.20;99.90;;;;;;5080262;28;20195;-75
2022/10/06 04:43:20;;;;;;;;;;;8.20;99.90;;;;;;5070732;28;19968;-75
2022/10/06 04:45:45;;;;;;;;;;;8.10;99.90;;;;;;5077523;28;20180;-75
2022/10/06 04:48:12;;;;;;;;;;;8.00;99.90;;;;;;5079922;28;19931;-75
2022/10/06 04:50:37;;;;;;;;;;;7.90;99.90;;;;;;5080758;28;19917;-75
2022/10/06 04:53:03;;;;;;;;;;;7.90;99.90;;;;;;5073756;28;19985;-75
2022/10/06 04:55:28;;;;;;;;;;;7.80;99.90;;;;;;5079085;28;20017;-75
2022/10/06 04:57:54;;;;;;;;;;;7.60;99.90;;;;;;5079933;28;19970;-76
2022/10/06 05:00:24;;;;;;;;;;;7.50;99.90;;;;;;5080806;28;19920;-75
2022/10/06 05:02:52;;;;;;;;;;;7.50;99.90;;;;;;5076078;28;19984;-75
2022/10/06 05:05:17;;;;;;;;;;;7.40;99.90;;;;;;5078155;28;19922;-75
2022/10/06 05:07:44;;;;;;;;;;;7.30;99.90;;;;;;5082160;28;20387;-75
2022/10/06 05:10:09;;;;;;;;;;;7.30;99.90;;;;;;5078292;28;20363;-75
2022/10/06 05:12:35;;;;;;;;;;;7.20;99.90;;;;;;5074500;28;19912;-75
2022/10/06 05:15:00;;;;;;;;;;;7.20;99.90;;;;;;5073557;28;19956;-75
2022/10/06 05:17:26;;;;;;;;;;;7.20;99.90;;;;;;5074753;28;20039;-75
2022/10/06 05:19:52;;;;;;;;;;;7.30;99.90;;;;;;5076731;28;20007;-75
2022/10/06 05:22:17;;;;;;;;;;;7.30;99.90;;;;;;5066648;28;20049;-75
2022/10/06 05:24:43;;;;;;;;;;;7.20;99.90;;;;;;5078944;28;19942;-75
2022/10/06 05:27:08;;;;;;;;;;;7.20;99.90;;;;;;5080140;28;20417;-76
2022/10/06 05:29:34;;;;;;;;;;;7.20;99.90;;;;;;5077617;28;19917;-75
2022/10/06 05:31:59;;;;;;;;;;;7.20;99.90;;;;;;5076454;28;19944;-75
2022/10/06 05:34:25;;;;;;;;;;;7.10;99.90;;;;;;5082418;28;19922;-76
2022/10/06 05:36:50;;;;;;;;;;;7.10;99.90;;;;;;5081981;28;19916;-75
2022/10/06 05:39:16;;;;;;;;;;;7.10;99.90;;;;;;5074099;28;19924;-76
2022/10/06 05:41:41;;;;;;;;;;;7.00;99.90;;;;;;5059703;28;20383;-74
2022/10/06 05:44:07;;;;;;;;;;;7.00;99.90;;;;;;5079035;28;20284;-75
2022/10/06 05:46:33;;;;;;;;;;;7.00;99.90;;;;;;5076879;28;19923;-75
2022/10/06 05:49:00;;;;;;;;;;;7.00;99.90;;;;;;5081702;28;19916;-75
2022/10/06 05:51:27;;;;;;;;;;;7.00;99.90;;;;;;5081648;28;20392;-75
2022/10/06 05:53:53;;;;;;;;;;;7.00;99.90;;;;;;5101847;28;19911;-75
2022/10/06 05:56:19;;;;;;;;;;;7.00;99.90;;;;;;5082199;28;20357;-76
2022/10/06 05:58:49;;;;;;;;;;;7.10;99.90;;;;;;5101039;28;19955;-75
2022/10/06 06:01:16;;;;;;;;;;;7.10;99.90;;;;;;5099583;28;19918;-74
2022/10/06 06:03:45;;;;;;;;;;;7.00;99.90;;;;;;5097337;28;19916;-75
2022/10/06 06:06:20;;;;;;;;;;;7.00;99.90;;;;;;5098309;28;19955;-76
2022/10/06 06:08:47;;;;;;;;;;;7.00;99.90;;;;;;5082775;28;20045;-75
2022/10/06 06:11:12;;;;;;;;;;;7.00;99.90;;;;;;5099988;28;20345;-74
2022/10/06 06:13:38;;;;;;;;;;;7.00;99.90;;;;;;5100622;28;20006;-76
2022/10/06 06:16:04;;;;;;;;;;;7.00;99.90;;;;;;5081470;28;19915;-75
2022/10/06 06:18:31;;;;;;;;;;;7.00;99.90;;;;;;5096813;28;20002;-75
2022/10/06 06:21:01;;;;;;;;;;;6.90;99.90;;;;;;5079997;28;19920;-76
2022/10/06 06:23:37;;;;;;;;;;;6.90;99.90;;;;;;5080649;28;20337;-75
2022/10/06 06:26:05;;;;;;;;;;;6.90;99.90;;;;;;5081996;28;20259;-75
2022/10/06 06:28:31;;;;;;;;;;;6.90;99.90;;;;;;5077859;28;19930;-75
2022/10/06 06:31:08;;;;;;;;;;;6.90;99.90;;;;;;5095131;28;20003;-75
2022/10/06 06:33:36;;;;;;;;;;;6.90;99.90;;;;;;5077336;28;19939;-75
2022/10/06 06:36:03;;;;;;;;;;;6.80;99.90;;;;;;5098734;28;19926;-75
2022/10/06 06:38:30;;;;;;;;;;;6.90;99.90;;;;;;5097896;28;19962;-75
2022/10/06 06:40:55;;;;;;;;;;;7.00;99.90;;;;;;5077096;28;20041;-75
2022/10/06 06:43:21;;;;;;;;;;;7.20;99.90;;;;;;5079095;28;20014;-75
2022/10/06 06:45:47;;;;;;;;;;;7.40;99.90;;;;;;5074858;28;19916;-75
2022/10/06 06:48:14;;;;;;;;;;;7.50;99.90;;;;;;5100325;28;19916;-76
2022/10/06 06:50:40;;;;;;;;;;;7.60;99.90;;;;;;5098110;27;19920;-76
2022/10/06 06:53:05;;;;;;;;;;;7.60;99.90;;;;;;5093869;27;20170;-75
2022/10/06 06:55:31;;;;;;;;;;;7.50;99.90;;;;;;5088005;28;20010;-76
2022/10/06 06:57:56;;;;;;;;;;;7.60;99.90;;;;;;5099930;28;19924;-75
2022/10/06 07:00:22;;;;;;;;;;;7.60;99.90;;;;;;5093529;28;19916;-75
2022/10/06 07:02:54;;;;;;;;;;;7.60;99.90;;;;;;5079499;28;19931;-77
2022/10/06 07:05:21;;;;;;;;;;;7.70;99.90;;;;;;5096067;28;19959;-76
2022/10/06 07:07:46;;;;;;;;;;;7.80;99.90;;;;;;5090406;28;19916;-76
2022/10/06 07:10:12;;;;;;;;;;;7.90;99.90;;;;;;5099143;27;20429;-76
2022/10/06 07:12:37;;;;;;;;;;;8.10;99.90;;;;;;5086984;28;20398;-75
2022/10/06 07:26:01;;;;;;;;;;;8.30;99.90;;;;;;5087708;28;19923;-77
2022/10/06 07:28:29;;;;;;;;;;;8.40;99.90;;;;;;5072713;28;19916;-75
2022/10/06 07:30:55;;;;;;;;;;;8.40;99.90;;;;;;5083027;28;20650;-75
2022/10/06 07:33:21;;;;;;;;;;;8.50;99.90;;;;;;5074549;28;19973;-75
2022/10/06 07:35:46;;;;;;;;;;;8.60;99.90;;;;;;5081091;28;20322;-75
2022/10/06 07:38:11;;;;;;;;;;;8.80;99.90;;;;;;5092944;28;19924;-76
2022/10/06 07:40:37;;;;;;;;;;;9.00;99.90;;;;;;5085766;28;19915;-75
2022/10/06 07:43:02;;;;;;;;;;;9.20;99.90;;;;;;5067820;28;19943;-76
2022/10/06 07:45:37;;;;;;;;;;;9.40;99.90;;;;;;5064565;28;19915;-75
2022/10/06 07:48:06;;;;;;;;;;;9.50;99.90;;;;;;5070339;28;20360;-76
2022/10/06 07:50:32;;;;;;;;;;;9.70;99.90;;;;;;5063467;28;19916;-76
2022/10/06 07:53:03;;;;;;;;;;;9.90;99.90;;;;;;5061431;28;19954;-76
2022/10/06 07:55:30;;;;;;;;;;;10.20;99.90;;;;;;5067100;28;20387;-76
2022/10/06 07:57:55;;;;;;;;;;;10.60;99.90;;;;;;5072187;28;20022;-76
2022/10/06 08:00:21;;;;;;;;;;;11.20;99.90;;;;;;5084792;28;20299;-76
2022/10/06 08:02:47;;;;;;;;;;;13.30;99.90;;;;;;5067932;28;19920;-75
2022/10/06 08:05:12;;;;;;;;;;;16.60;99.90;;;;;;5070054;28;19924;-76
2022/10/06 08:07:38;;;;;;;;;;;19.50;96.00;;;;;;5066113;28;19962;-77
2022/10/06 08:10:04;;;;;;;;;;;21.60;86.40;;;;;;5067352;28;19917;-76
2022/10/06 08:12:32;;;;;;;;;;;23.10;72.30;;;;;;5064996;28;19916;-77
2022/10/06 08:15:02;;;;;;;;;;;23.80;67.00;;;;;;5072904;28;19924;-76
2022/10/06 08:17:28;;;;;;;;;;;25.20;62.80;;;;;;5059988;28;19932;-76
2022/10/06 08:19:53;;;;;;;;;;;25.70;60.40;;;;;;5068880;28;20301;-76
2022/10/06 08:22:20;;;;;;;;;;;25.90;57.30;;;;;;5070918;28;19916;-77
2022/10/06 08:24:46;;;;;;;;;;;26.60;57.10;;;;;;5062080;28;20089;-77
2022/10/06 08:27:12;;;;;;;;;;;27.20;54.00;;;;;;5063426;28;19920;-77
2022/10/06 08:29:37;;;;;;;;;;;28.00;54.20;;;;;;5061210;28;20065;-77
2022/10/06 08:32:03;;;;;;;;;;;28.30;52.00;;;;;;5063938;28;19916;-77
2022/10/06 08:34:29;;;;;;;;;;;27.80;51.30;;;;;;5063085;28;19916;-77
2022/10/06 08:36:56;;;;;;;;;;;28.50;49.70;;;;;;5074283;28;20129;-76
2022/10/06 08:39:21;;;;;;;;;;;27.50;50.00;;;;;;5080823;28;20010;-76
2022/10/06 08:41:52;;;;;;;;;;;27.70;51.20;;;;;;5094495;28;19916;-77
2022/10/06 08:44:22;;;;;;;;;;;27.90;50.20;;;;;;5085105;28;20332;-77
2022/10/06 08:46:56;;;;;;;;;;;28.30;48.40;;;;;;5110838;27;20002;-77
2022/10/06 08:49:23;;;;;;;;;;;28.50;46.60;;;;;;5113500;27;19991;-77
2022/10/06 08:51:52;;;;;;;;;;;29.10;44.90;;;;;;5104574;28;19915;-77
2022/10/06 08:54:28;;;;;;;;;;;29.30;46.00;;;;;;5100619;28;19919;-77
2022/10/06 08:56:57;;;;;;;;;;;29.10;45.60;;;;;;5087686;28;20432;-77
2022/10/06 08:59:22;;;;;;;;;;;28.20;45.90;;;;;;5075525;28;19980;-77
2022/10/06 09:01:49;;;;;;;;;;;28.30;45.10;;;;;;5095712;27;19939;-77
2022/10/06 09:04:28;;;;;;;;;;;28.80;47.70;;;;;;5097872;28;19949;-77
2022/10/06 09:07:02;;;;;;;;;;;28.90;45.50;;;;;;5090591;28;19943;-78
2022/10/06 09:09:31;;;;;;;;;;;29.90;46.80;;;;;;5094521;28;19916;-77
2022/10/06 09:12:08;;;;;;;;;;;29.90;48.70;;;;;;5093069;28;19920;-77
2022/10/06 09:14:40;;;;;;;;;;;29.60;43.50;;;;;;5091955;27;19915;-77
2022/10/06 09:17:09;;;;;;;;;;;28.80;43.60;;;;;;5089517;27;19934;-78
2022/10/06 09:19:38;;;;;;;;;;;29.10;44.80;;;;;;5072608;28;19927;-77
2022/10/06 09:22:05;;;;;;;;;;;29.50;45.70;;;;;;5094079;27;19915;-78
2022/10/06 09:24:30;;;;;;;;;;;29.10;44.70;;;;;;5089571;28;20011;-77
2022/10/06 09:26:57;;;;;;;;;;;29.10;46.70;;;;;;5071831;28;20011;-77
2022/10/06 09:29:26;;;;;;;;;;;28.30;45.30;;;;;;5098716;28;19922;-77
2022/10/06 09:31:52;;;;;;;;;;;28.80;49.70;;;;;;5088974;27;19967;-77
2022/10/06 09:34:20;;;;;;;;;;;29.70;47.20;;;;;;5098941;27;19915;-77
2022/10/06 09:37:01;;;;;;;;;;;29.50;44.20;;;;;;5101609;28;19919;-77
2022/10/06 09:39:37;;;;;;;;;;;29.00;46.20;;;;;;5100890;27;20073;-77
2022/10/06 09:42:05;;;;;;;;;;;29.00;44.80;;;;;;5088920;27;19916;-77
2022/10/06 09:44:51;;;;;;;;;;;29.00;45.10;;;;;;5087137;27;19927;-77
2022/10/06 09:47:32;;;;;;;;;;;28.90;45.70;;;;;;5075942;28;19931;-77
2022/10/06 09:50:02;;;;;;;;;;;29.30;45.20;;;;;;5078162;28;19916;-77
2022/10/06 09:52:28;;;;;;;;;;;29.70;43.20;;;;;;5080610;28;19916;-77
2022/10/06 09:55:08;;;;;;;;;;;28.80;44.20;;;;;;5088564;28;19997;-77
2022/10/06 09:57:35;;;;;;;;;;;28.90;43.60;;;;;;5078889;28;20071;-77
2022/10/06 10:00:00;;;;;;;;;;;28.60;44.60;;;;;;5067038;28;19951;-77
2022/10/06 10:02:35;;;;;;;;;;;28.20;44.60;;;;;;5072300;28;19970;-77
2022/10/06 10:05:02;;;;;;;;;;;27.90;44.70;;;;;;5074741;28;20858;-77
2022/10/06 10:07:29;;;;;;;;;;;28.70;45.10;;;;;;5079195;28;19926;-77
2022/10/06 10:10:13;;;;;;;;;;;29.30;48.00;;;;;;5077593;28;20318;-77
2022/10/06 10:12:47;;;;;;;;;;;28.70;44.90;;;;;;5061020;28;19931;-77
2022/10/06 10:15:19;;;;;;;;;;;29.50;42.90;;;;;;5070868;28;19955;-77
2022/10/06 10:17:58;;;;;;;;;;;29.60;43.00;;;;;;5068309;28;20121;-77
2022/10/06 10:20:23;;;;;;;;;;;29.90;44.50;;;;;;5062065;28;19916;-78
2022/10/06 10:22:49;;;;;;;;;;;29.10;41.20;;;;;;5064834;28;20395;-78
2022/10/06 10:25:15;;;;;;;;;;;29.10;43.70;;;;;;5063798;28;19920;-77
2022/10/06 10:27:43;;;;;;;;;;;28.80;41.60;;;;;;5067251;28;19938;-77
2022/10/06 10:30:10;;;;;;;;;;;28.60;48.40;;;;;;5068390;28;19946;-78
2022/10/06 10:32:46;;;;;;;;;;;29.40;43.70;;;;;;5072539;28;20006;-75
2022/10/06 10:35:19;;;;;;;;;;;29.50;40.30;;;;;;5064314;28;20292;-76
2022/10/06 10:38:00;;;;;;;;;;;28.80;44.60;;;;;;5059943;28;19943;-76
2022/10/06 10:40:41;;;;;;;;;;;28.80;43.70;;;;;;5062484;28;20054;-76
2022/10/06 10:43:26;;;;;;;;;;;28.40;42.40;;;;;;5067387;28;19974;-76
2022/10/06 10:45:58;;;;;;;;;;;28.70;43.00;;;;;;5066078;28;19924;-75
2022/10/06 10:48:29;;;;;;;;;;;29.20;44.90;;;;;;5066943;28;19916;-76
2022/10/06 10:50:54;;;;;;;;;;;29.20;42.70;;;;;;5068004;28;19916;-76
2022/10/06 10:53:31;;;;;;;;;;;29.30;40.40;;;;;;5067169;28;20075;-76
2022/10/06 10:55:58;;;;;;;;;;;28.80;41.30;;;;;;5066925;28;20795;-76
2022/10/06 10:58:26;;;;;;;;;;;28.60;42.50;;;;;;5065676;28;19931;-76
2022/10/06 11:00:54;;;;;;;;;;;28.80;42.60;;;;;;5057034;28;19916;-76
2022/10/06 11:03:19;;;;;;;;;;;28.10;41.50;;;;;;5075313;28;19927;-75
2022/10/06 11:06:10;;;;;;;;;;;27.80;41.80;;;;;;5081542;28;20011;-76
2022/10/06 11:08:35;;;;;;;;;;;27.90;43.30;;;;;;5030923;28;20179;-76
2022/10/06 11:11:03;;;;;;;;;;;27.70;43.50;;;;;;5066420;28;19918;-75
2022/10/06 11:13:37;;;;;;;;;;;27.70;47.20;;;;;;5066655;28;20293;-76
2022/10/06 11:16:21;;;;;;;;;;;27.30;45.60;;;;;;5064895;28;19938;-75
2022/10/06 11:19:06;;;;;;;;;;;26.90;45.10;;;;;;5065526;28;19932;-75
2022/10/06 11:21:38;;;;;;;;;;;25.90;47.50;;;;;;5069525;28;20298;-75
2022/10/06 11:24:22;;;;;;;;;;;24.70;51.20;;;;;;5068004;28;19938;-77
2022/10/06 11:26:58;;;;;;;;;;;24.10;54.00;;;;;;5070101;28;20060;-77
2022/10/06 11:29:29;;;;;;;;;;;24.20;56.40;;;;;;5068312;28;19920;-78
2022/10/06 11:32:13;;;;;;;;;;;23.80;53.40;;;;;;5067091;28;19917;-77
2022/10/06 11:34:39;;;;;;;;;;;23.60;53.40;;;;;;5067410;28;19917;-78
2022/10/06 11:37:19;;;;;;;;;;;23.50;55.70;;;;;;5070500;28;19923;-78
2022/10/06 11:40:03;;;;;;;;;;;23.50;54.30;;;;;;5063777;28;19920;-77
2022/10/06 11:42:45;;;;;;;;;;;23.30;56.20;;;;;;5063485;28;20225;-78
2022/10/06 11:45:15;;;;;;;;;;;23.20;55.30;;;;;;5069318;28;20060;-77
2022/10/06 11:47:59;;;;;;;;;;;23.10;52.10;;;;;;5062347;28;19934;-78
2022/10/06 11:50:34;;;;;;;;;;;22.90;54.00;;;;;;5063110;28;19992;-77
2022/10/06 11:53:00;;;;;;;;;;;22.60;55.20;;;;;;5071153;28;19950;-77
2022/10/06 11:55:27;;;;;;;;;;;22.50;55.80;;;;;;5059557;28;19913;-78
2022/10/06 11:58:04;;;;;;;;;;;22.10;55.90;;;;;;5059317;28;20374;-77
2022/10/06 12:00:33;;;;;;;;;;;22.10;58.50;;;;;;5060371;28;19923;-78
2022/10/06 12:03:18;;;;;;;;;;;22.30;63.10;;;;;;5063950;28;19920;-77
2022/10/06 12:05:44;;;;;;;;;;;22.30;55.60;;;;;;5057252;28;19920;-77
2022/10/06 12:08:15;;;;;;;;;;;21.80;56.60;;;;;;5070318;28;19938;-77
2022/10/06 12:10:50;;;;;;;;;;;21.70;57.80;;;;;;5061237;28;19935;-77
2022/10/06 12:13:24;;;;;;;;;;;21.50;58.00;;;;;;5070073;28;19926;-77
2022/10/06 12:16:09;;;;;;;;;;;21.30;56.00;;;;;;5082711;28;20462;-77
2022/10/06 12:18:53;;;;;;;;;;;21.30;58.80;;;;;;5067635;28;19924;-77
2022/10/06 12:21:26;;;;;;;;;;;21.50;64.00;;;;;;5089194;28;19943;-77
2022/10/06 12:23:52;;;;;;;;;;;21.50;62.20;;;;;;4718797;28;10000120;-77
2022/10/06 12:26:18;;;;;;;;;;;21.70;59.00;;;;;;5078273;28;19921;-77
2022/10/06 12:28:58;;;;;;;;;;;21.70;57.50;;;;;;5081672;28;19916;-77
2022/10/06 12:31:32;;;;;;;;;;;21.70;59.60;;;;;;5075221;28;19920;-77
2022/10/06 12:33:58;;;;;;;;;;;21.30;61.30;;;;;;5075309;28;19916;-77
2022/10/06 12:36:30;;;;;;;;;;;21.20;60.80;;;;;;5076588;28;19988;-77
2022/10/06 12:39:00;;;;;;;;;;;21.20;64.00;;;;;;5083015;28;19958;-77
2022/10/06 12:41:54;;;;;;;;;;;21.10;65.00;;;;;;5073697;28;19920;-77
2022/10/06 12:44:25;;;;;;;;;;;21.00;63.00;;;;;;5047565;28;19921;-77
2022/10/06 12:46:50;;;;;;;;;;;21.40;65.00;;;;;;5063083;28;20007;-76
2022/10/06 12:49:25;;;;;;;;;;;21.80;62.30;;;;;;5080289;28;20034;-77
2022/10/06 12:51:52;;;;;;;;;;;21.90;62.50;;;;;;5075624;28;19929;-77
2022/10/06 12:54:18;;;;;;;;;;;21.60;60.30;;;;;;5064835;28;20018;-77
2022/10/06 12:56:55;;;;;;;;;;;21.50;63.60;;;;;;5074787;28;20478;-77
2022/10/06 12:59:21;;;;;;;;;;;21.40;64.30;;;;;;5077067;28;20252;-77
2022/10/06 13:01:48;;;;;;;;;;;21.80;64.70;;;;;;5066883;28;20407;-77
2022/10/06 13:04:28;;;;;;;;;;;21.80;60.00;;;;;;5074978;28;19916;-77
2022/10/06 13:06:54;;;;;;;;;;;21.80;61.20;;;;;;5081445;28;19916;-77
2022/10/06 13:09:20;;;;;;;;;;;21.50;61.60;;;;;;5071071;28;20034;-77
2022/10/06 13:11:48;;;;;;;;;;;21.30;64.80;;;;;;5075007;28;20015;-77
2022/10/06 13:14:14;;;;;;;;;;;21.20;66.40;;;;;;5075880;28;20057;-77
2022/10/06 13:16:41;;;;;;;;;;;21.00;63.40;;;;;;5078623;28;20232;-76
2022/10/06 13:19:13;;;;;;;;;;;20.90;65.40;;;;;;5069254;28;19929;-77
2022/10/06 13:21:39;;;;;;;;;;;20.70;66.20;;;;;;5070209;28;20368;-76
2022/10/06 13:24:05;;;;;;;;;;;20.50;65.80;;;;;;5079143;28;19920;-76
2022/10/06 13:26:31;;;;;;;;;;;20.30;68.30;;;;;;5081549;28;19942;-77
2022/10/06 13:28:58;;;;;;;;;;;20.30;67.60;;;;;;5082821;28;20489;-77
2022/10/06 13:31:25;;;;;;;;;;;20.30;66.70;;;;;;5080116;28;20284;-77
2022/10/06 13:33:56;;;;;;;;;;;20.20;66.30;;;;;;5081703;28;20352;-77
2022/10/06 13:36:22;;;;;;;;;;;20.20;66.20;;;;;;5080732;28;19926;-77
2022/10/06 13:38:48;;;;;;;;;;;20.20;70.30;;;;;;5080483;28;19964;-77
2022/10/06 13:41:16;;;;;;;;;;;20.20;66.60;;;;;;5080319;28;20435;-76
2022/10/06 13:43:45;;;;;;;;;;;20.20;68.50;;;;;;5091715;28;20272;-77
2022/10/06 13:46:12;;;;;;;;;;;20.10;70.20;;;;;;5064254;28;19921;-76
2022/10/06 13:48:53;;;;;;;;;;;20.10;70.60;;;;;;5077967;28;19999;-77
2022/10/06 13:51:24;;;;;;;;;;;20.10;71.90;;;;;;5082979;28;19946;-76
2022/10/06 13:53:50;;;;;;;;;;;19.80;72.70;;;;;;5075223;28;19951;-76
2022/10/06 13:56:24;;;;;;;;;;;19.60;72.60;;;;;;5068754;28;19916;-76
2022/10/06 13:58:50;;;;;;;;;;;19.40;75.70;;;;;;5071514;28;19959;-77
2022/10/06 14:01:26;;;;;;;;;;;19.20;78.70;;;;;;5075498;28;20347;-76
2022/10/06 14:04:10;;;;;;;;;;;19.00;80.20;;;;;;5075860;28;19947;-76
2022/10/06 14:06:35;;;;;;;;;;;19.00;82.70;;;;;;5074268;28;20380;-77
2022/10/06 14:09:08;;;;;;;;;;;19.40;85.10;;;;;;5078270;28;19919;-76
2022/10/06 14:11:34;;;;;;;;;;;19.70;80.40;;;;;;5075130;28;19916;-76
2022/10/06 14:14:01;;;;;;;;;;;19.80;80.30;;;;;;5082323;28;19916;-76
2022/10/06 14:16:27;;;;;;;;;;;19.90;79.50;;;;;;5078156;28;19916;-76
2022/10/06 14:18:58;;;;;;;;;;;20.00;82.50;;;;;;5077595;28;20106;-76
2022/10/06 14:21:30;;;;;;;;;;;20.00;83.30;;;;;;5078583;28;19942;-76
2022/10/06 14:23:56;;;;;;;;;;;19.80;85.00;;;;;;5081818;28;19961;-76
2022/10/06 14:26:24;;;;;;;;;;;19.40;85.50;;;;;;5083621;28;19989;-76
2022/10/06 14:28:51;;;;;;;;;;;19.10;91.30;;;;;;5079975;28;19981;-76
2022/10/06 14:31:20;;;;;;;;;;;19.30;92.00;;;;;;5079053;28;19923;-76
2022/10/06 14:33:47;;;;;;;;;;;19.40;93.50;;;;;;5074997;28;20746;-76
2022/10/06 14:36:17;;;;;;;;;;;19.20;91.20;;;;;;5083180;28;20029;-76
2022/10/06 14:38:44;;;;;;;;;;;18.90;91.60;;;;;;5075052;28;20019;-76
2022/10/06 14:41:10;;;;;;;;;;;19.00;92.70;;;;;;5083073;28;20380;-76
2022/10/06 14:43:35;;;;;;;;;;;19.00;93.40;;;;;;5079582;28;20085;-76